sensor_id;sensor_type;location;lat;lon;timestamp;P1;durP1;ratioP1;P2;durP2;ratioP2
22861;SDS011;11598;50.652;6.172;2024-02-28T00:01:49;151.40;;;14.57;;
22861;SDS011;11598;50.652;6.172;2024-02-28T00:11:53;382.90;;;26.25;;
22861;SDS011;11598;50.652;6.172;2024-02-28T00:21:53;253.85;;;24.38;;
22861;SDS011;11598;50.652;6.172;2024-02-28T00:31:54;387.02;;;32.65;;
22861;SDS011;11598;50.652;6.172;2024-02-28T00:41:54;328.60;;;29.23;;
22861;SDS011;11598;50.652;6.172;2024-02-28T00:51:54;461.17;;;33.88;;
22861;SDS011;11598;50.652;6.172;2024-02-28T01:01:56;410.92;;;32.00;;
22861;SDS011;11598;50.652;6.172;2024-02-28T01:11:56;465.08;;;34.03;;
22861;SDS011;11598;50.652;6.172;2024-02-28T01:21:57;304.27;;;26.50;;
22861;SDS011;11598;50.652;6.172;2024-02-28T01:41:59;272.33;;;19.63;;
22861;SDS011;11598;50.652;6.172;2024-02-28T01:52:00;317.73;;;21.87;;
22861;SDS011;11598;50.652;6.172;2024-02-28T02:02:00;289.20;;;19.02;;
22861;SDS011;11598;50.652;6.172;2024-02-28T02:12:01;274.10;;;21.73;;
22861;SDS011;11598;50.652;6.172;2024-02-28T02:22:01;117.18;;;14.82;;
22861;SDS011;11598;50.652;6.172;2024-02-28T02:32:05;30.92;;;10.65;;
22861;SDS011;11598;50.652;6.172;2024-02-28T02:42:06;26.35;;;10.50;;
22861;SDS011;11598;50.652;6.172;2024-02-28T02:52:06;30.25;;;13.55;;
22861;SDS011;11598;50.652;6.172;2024-02-28T03:02:06;25.35;;;11.38;;
22861;SDS011;11598;50.652;6.172;2024-02-28T03:12:07;30.67;;;11.30;;
22861;SDS011;11598;50.652;6.172;2024-02-28T03:22:07;22.58;;;11.13;;
22861;SDS011;11598;50.652;6.172;2024-02-28T03:32:08;27.42;;;11.23;;
22861;SDS011;11598;50.652;6.172;2024-02-28T03:42:08;24.77;;;10.68;;
22861;SDS011;11598;50.652;6.172;2024-02-28T03:52:10;21.47;;;9.10;;
22861;SDS011;11598;50.652;6.172;2024-02-28T04:02:10;19.60;;;9.07;;
22861;SDS011;11598;50.652;6.172;2024-02-28T04:12:11;15.80;;;8.48;;
22861;SDS011;11598;50.652;6.172;2024-02-28T04:22:11;17.50;;;8.38;;
22861;SDS011;11598;50.652;6.172;2024-02-28T04:32:11;29.67;;;9.35;;
22861;SDS011;11598;50.652;6.172;2024-02-28T04:42:12;31.27;;;9.35;;
22861;SDS011;11598;50.652;6.172;2024-02-28T04:52:13;24.23;;;9.25;;
22861;SDS011;11598;50.652;6.172;2024-02-28T05:02:13;81.20;;;14.98;;
22861;SDS011;11598;50.652;6.172;2024-02-28T05:12:13;105.57;;;17.30;;
22861;SDS011;11598;50.652;6.172;2024-02-28T05:22:14;138.52;;;17.40;;
22861;SDS011;11598;50.652;6.172;2024-02-28T05:32:15;122.15;;;18.52;;
22861;SDS011;11598;50.652;6.172;2024-02-28T05:42:17;169.27;;;22.33;;
22861;SDS011;11598;50.652;6.172;2024-02-28T05:52:21;122.85;;;20.50;;
22861;SDS011;11598;50.652;6.172;2024-02-28T06:02:22;121.45;;;20.60;;
22861;SDS011;11598;50.652;6.172;2024-02-28T06:12:22;65.43;;;17.98;;
22861;SDS011;11598;50.652;6.172;2024-02-28T06:22:22;62.33;;;18.35;;
22861;SDS011;11598;50.652;6.172;2024-02-28T06:32:23;62.88;;;18.67;;
22861;SDS011;11598;50.652;6.172;2024-02-28T06:42:25;78.43;;;19.47;;
22861;SDS011;11598;50.652;6.172;2024-02-28T06:52:25;113.43;;;21.05;;
22861;SDS011;11598;50.652;6.172;2024-02-28T07:02:25;133.57;;;25.02;;
22861;SDS011;11598;50.652;6.172;2024-02-28T07:12:26;212.43;;;28.00;;
22861;SDS011;11598;50.652;6.172;2024-02-28T07:22:27;372.33;;;34.20;;
22861;SDS011;11598;50.652;6.172;2024-02-28T07:32:27;340.20;;;28.92;;
22861;SDS011;11598;50.652;6.172;2024-02-28T07:42:27;230.70;;;23.17;;
22861;SDS011;11598;50.652;6.172;2024-02-28T07:52:28;148.93;;;22.42;;
22861;SDS011;11598;50.652;6.172;2024-02-28T08:02:28;47.78;;;19.63;;
22861;SDS011;11598;50.652;6.172;2024-02-28T08:12:28;91.15;;;21.33;;
22861;SDS011;11598;50.652;6.172;2024-02-28T08:22:29;51.30;;;19.70;;
22861;SDS011;11598;50.652;6.172;2024-02-28T08:32:29;81.13;;;23.10;;
22861;SDS011;11598;50.652;6.172;2024-02-28T08:42:29;70.15;;;22.80;;
22861;SDS011;11598;50.652;6.172;2024-02-28T08:52:30;54.53;;;21.05;;
22861;SDS011;11598;50.652;6.172;2024-02-28T09:02:30;55.78;;;22.00;;
22861;SDS011;11598;50.652;6.172;2024-02-28T09:12:31;48.63;;;19.60;;
22861;SDS011;11598;50.652;6.172;2024-02-28T09:22:31;48.25;;;19.58;;
22861;SDS011;11598;50.652;6.172;2024-02-28T09:32:32;49.40;;;18.40;;
22861;SDS011;11598;50.652;6.172;2024-02-28T09:42:32;27.03;;;11.87;;
22861;SDS011;11598;50.652;6.172;2024-02-28T09:52:34;26.85;;;11.70;;
22861;SDS011;11598;50.652;6.172;2024-02-28T10:02:35;16.17;;;8.50;;
22861;SDS011;11598;50.652;6.172;2024-02-28T10:12:40;17.47;;;8.70;;
22861;SDS011;11598;50.652;6.172;2024-02-28T10:22:42;12.73;;;6.18;;
22861;SDS011;11598;50.652;6.172;2024-02-28T10:32:49;10.70;;;4.63;;
22861;SDS011;11598;50.652;6.172;2024-02-28T10:42:50;6.63;;;3.20;;
22861;SDS011;11598;50.652;6.172;2024-02-28T10:52:50;6.28;;;2.92;;
22861;SDS011;11598;50.652;6.172;2024-02-28T11:02:54;5.57;;;2.72;;
22861;SDS011;11598;50.652;6.172;2024-02-28T11:12:56;5.20;;;2.38;;
22861;SDS011;11598;50.652;6.172;2024-02-28T11:22:57;6.22;;;2.80;;
22861;SDS011;11598;50.652;6.172;2024-02-28T11:32:57;3.88;;;1.80;;
22861;SDS011;11598;50.652;6.172;2024-02-28T11:42:59;3.80;;;1.63;;
22861;SDS011;11598;50.652;6.172;2024-02-28T11:53:03;1.63;;;0.70;;
22861;SDS011;11598;50.652;6.172;2024-02-28T12:03:05;2.28;;;0.68;;
22861;SDS011;11598;50.652;6.172;2024-02-28T12:13:08;0.73;;;0.30;;
22861;SDS011;11598;50.652;6.172;2024-02-28T12:23:09;1.40;;;0.50;;
22861;SDS011;11598;50.652;6.172;2024-02-28T12:33:12;1.05;;;0.40;;
22861;SDS011;11598;50.652;6.172;2024-02-28T12:43:13;0.55;;;0.30;;
22861;SDS011;11598;50.652;6.172;2024-02-28T12:53:14;0.30;;;0.10;;
22861;SDS011;11598;50.652;6.172;2024-02-28T13:03:14;0.22;;;0.10;;
22861;SDS011;11598;50.652;6.172;2024-02-28T13:13:16;0.70;;;0.20;;
22861;SDS011;11598;50.652;6.172;2024-02-28T13:23:16;0.70;;;0.28;;
22861;SDS011;11598;50.652;6.172;2024-02-28T13:33:16;1.60;;;0.40;;
22861;SDS011;11598;50.652;6.172;2024-02-28T13:43:18;2.13;;;0.60;;
22861;SDS011;11598;50.652;6.172;2024-02-28T13:53:19;1.98;;;0.60;;
22861;SDS011;11598;50.652;6.172;2024-02-28T14:03:19;1.05;;;0.40;;
22861;SDS011;11598;50.652;6.172;2024-02-28T14:13:20;2.40;;;0.40;;
22861;SDS011;11598;50.652;6.172;2024-02-28T14:23:21;1.17;;;0.50;;
22861;SDS011;11598;50.652;6.172;2024-02-28T14:33:21;2.17;;;0.60;;
22861;SDS011;11598;50.652;6.172;2024-02-28T14:43:22;0.93;;;0.50;;
22861;SDS011;11598;50.652;6.172;2024-02-28T14:53:22;1.10;;;0.40;;
22861;SDS011;11598;50.652;6.172;2024-02-28T15:03:23;1.98;;;0.60;;
22861;SDS011;11598;50.652;6.172;2024-02-28T15:13:23;1.05;;;0.40;;
22861;SDS011;11598;50.652;6.172;2024-02-28T15:23:24;1.40;;;0.30;;
22861;SDS011;11598;50.652;6.172;2024-02-28T15:33:24;2.13;;;0.32;;
22861;SDS011;11598;50.652;6.172;2024-02-28T15:43:25;0.80;;;0.35;;
22861;SDS011;11598;50.652;6.172;2024-02-28T15:53:25;1.75;;;0.65;;
22861;SDS011;11598;50.652;6.172;2024-02-28T16:03:26;1.27;;;0.60;;
22861;SDS011;11598;50.652;6.172;2024-02-28T16:13:26;1.60;;;0.60;;
22861;SDS011;11598;50.652;6.172;2024-02-28T16:23:26;1.80;;;0.57;;
22861;SDS011;11598;50.652;6.172;2024-02-28T16:33:27;2.15;;;0.70;;
22861;SDS011;11598;50.652;6.172;2024-02-28T16:43:27;2.97;;;1.05;;
22861;SDS011;11598;50.652;6.172;2024-02-28T16:53:27;2.75;;;1.10;;
22861;SDS011;11598;50.652;6.172;2024-02-28T17:03:30;2.60;;;0.83;;
22861;SDS011;11598;50.652;6.172;2024-02-28T17:13:30;1.80;;;0.80;;
22861;SDS011;11598;50.652;6.172;2024-02-28T17:23:32;2.72;;;1.17;;
22861;SDS011;11598;50.652;6.172;2024-02-28T17:33:32;3.35;;;1.20;;
22861;SDS011;11598;50.652;6.172;2024-02-28T17:43:32;3.05;;;1.17;;
22861;SDS011;11598;50.652;6.172;2024-02-28T17:53:33;2.05;;;0.85;;
22861;SDS011;11598;50.652;6.172;2024-02-28T18:03:34;2.15;;;0.70;;
22861;SDS011;11598;50.652;6.172;2024-02-28T18:13:34;2.08;;;0.90;;
22861;SDS011;11598;50.652;6.172;2024-02-28T18:23:34;3.17;;;0.93;;
22861;SDS011;11598;50.652;6.172;2024-02-28T18:33:35;2.80;;;1.20;;
22861;SDS011;11598;50.652;6.172;2024-02-28T18:43:36;3.13;;;1.08;;
22861;SDS011;11598;50.652;6.172;2024-02-28T18:53:41;2.55;;;1.17;;
22861;SDS011;11598;50.652;6.172;2024-02-28T19:03:43;3.57;;;1.33;;
22861;SDS011;11598;50.652;6.172;2024-02-28T19:13:43;3.75;;;1.30;;
22861;SDS011;11598;50.652;6.172;2024-02-28T19:23:44;3.13;;;1.10;;
22861;SDS011;11598;50.652;6.172;2024-02-28T19:33:45;2.78;;;1.20;;
22861;SDS011;11598;50.652;6.172;2024-02-28T19:43:45;3.90;;;1.40;;
22861;SDS011;11598;50.652;6.172;2024-02-28T19:53:46;3.30;;;1.30;;
22861;SDS011;11598;50.652;6.172;2024-02-28T20:03:46;5.97;;;2.80;;
22861;SDS011;11598;50.652;6.172;2024-02-28T20:13:48;3.85;;;1.80;;
22861;SDS011;11598;50.652;6.172;2024-02-28T20:23:48;5.88;;;2.33;;
22861;SDS011;11598;50.652;6.172;2024-02-28T20:33:48;6.28;;;2.20;;
22861;SDS011;11598;50.652;6.172;2024-02-28T20:43:49;5.25;;;2.58;;
22861;SDS011;11598;50.652;6.172;2024-02-28T20:53:50;6.75;;;2.80;;
22861;SDS011;11598;50.652;6.172;2024-02-28T21:03:53;9.00;;;3.28;;
22861;SDS011;11598;50.652;6.172;2024-02-28T21:14:01;6.20;;;2.95;;
22861;SDS011;11598;50.652;6.172;2024-02-28T21:24:02;9.02;;;3.10;;
22861;SDS011;11598;50.652;6.172;2024-02-28T21:34:02;6.15;;;2.67;;
22861;SDS011;11598;50.652;6.172;2024-02-28T21:44:03;5.40;;;2.53;;
22861;SDS011;11598;50.652;6.172;2024-02-28T21:54:03;6.05;;;2.33;;
22861;SDS011;11598;50.652;6.172;2024-02-28T22:04:03;6.15;;;2.60;;
22861;SDS011;11598;50.652;6.172;2024-02-28T22:14:04;5.85;;;2.42;;
22861;SDS011;11598;50.652;6.172;2024-02-28T22:24:06;5.82;;;2.65;;
22861;SDS011;11598;50.652;6.172;2024-02-28T22:34:08;6.13;;;2.73;;
22861;SDS011;11598;50.652;6.172;2024-02-28T22:44:08;6.22;;;3.15;;
22861;SDS011;11598;50.652;6.172;2024-02-28T22:54:08;7.82;;;3.42;;
22861;SDS011;11598;50.652;6.172;2024-02-28T23:04:15;10.52;;;3.72;;
22861;SDS011;11598;50.652;6.172;2024-02-28T23:14:17;7.85;;;3.63;;
22861;SDS011;11598;50.652;6.172;2024-02-28T23:24:18;8.55;;;4.18;;
22861;SDS011;11598;50.652;6.172;2024-02-28T23:34:18;9.23;;;3.67;;
22861;SDS011;11598;50.652;6.172;2024-02-28T23:44:19;8.73;;;4.30;;
22861;SDS011;11598;50.652;6.172;2024-02-28T23:54:19;9.50;;;4.35;;
